Windsor Airport
CYQG : rendu visible

Aérodrome :











RETROUVEZ-NOUS SUR...

 
LOGIN :

S'inscrire | Disclaimer

   EN    FR    IT 

 









Légende :    VFR   VFR Marginal   IFR   IFR Intensif   IFR Très Intensif
Visi : 
Plafond : 
>= 8 km
>= 3000ft
5 à 8 km
1000 à 3000 ft
1500m à 5 km
500 à 1000 ft
800 à 1500m
200 à 500 ft
< 800m
< 200 ft
Symboles :   Orages  Brouillard  Fortes neiges  Fortes précipitations  Vent > 20 kt






- Altitude de l'aérodrome : 622 ft
- Code IATA : YQG


CYQG - Windsor

DERNIER METAR :
  • 101100Z AUTO 21006KT 9SM CLR 22/20 A3000 RMK SLP158 DENSITY ALT 1400FT

METARs EXPIRÉS :
  • 101000Z AUTO 20008KT 9SM CLR 22/20 A2999 RMK SLP153 DENSITY ALT 1400FT
  • 100900Z AUTO 24006KT 9SM CLR 22/20 A3001 RMK SLP160 DENSITY ALT 1400FT

TAF TAF CYQG
Valide du 10 à 12h jusqu'au 11 à 12h UTC


101138Z 1012/1112 21006KT P6SM FEW050
FM101400 21010G20KT P6SM FEW050 SCT120
BECMG 1022/1024 21010KT
FM110200 22012KT P6SM BKN040
TEMPO 1102/1109 P6SM -SHRA
PROB30 1102/1109 VRB15G25KT 2SM TSRA BR BKN030CB
FM110900 28008KT P6SM BKN030 RMK FCST BASED ON AUTO OBS. NXT FCST BY 101800Z
FIR CZYZ / Amérique du Nord



MET'MAP, la Météo Aéronautique d'un coup d'oeil ! - Copyright ORBIFLY Décembre 2007 - Disclaimer

ORBIFLY MET'MAP TEAM :

Programmation & Développement : Alexandra Zaïnal
Sur une idée originale de : Baudouin d'Aumeries
Assistance à la programmation : Marc-Olivier Méhu
Soutien technique & logistique : Manuel Goepfert

Contact : metmap@orbifly.com




SOURCES & CREDITS :

   NOAA       Earth
Advisory